createdAt,value
2023-01-22T00:02:28.193Z,11.40
2023-01-22T00:07:35.448Z,13.10
2023-01-22T00:12:42.804Z,13.20
2023-01-22T00:17:50.081Z,14.50
2023-01-22T00:22:57.329Z,13.90
2023-01-22T00:28:04.601Z,12.80
2023-01-22T00:33:12.040Z,13.80
2023-01-22T00:38:19.498Z,15.50
2023-01-22T00:43:27.172Z,15.00
2023-01-22T00:48:34.869Z,15.10
2023-01-22T00:53:43.874Z,14.50
2023-01-22T00:58:53.177Z,13.90
2023-01-22T01:04:00.526Z,12.20
2023-01-22T01:09:07.885Z,14.20
2023-01-22T01:14:17.293Z,14.30
2023-01-22T01:19:24.601Z,13.30
2023-01-22T01:24:32.487Z,12.60
2023-01-22T01:29:40.369Z,11.70
2023-01-22T01:39:55.525Z,11.50
2023-01-22T01:45:30.335Z,11.80
2023-01-22T01:50:39.249Z,12.40
2023-01-22T01:55:46.547Z,11.00
2023-01-22T02:00:59.421Z,10.50
2023-01-22T02:06:07.315Z,11.50
2023-01-22T02:11:16.425Z,12.40
2023-01-22T02:16:23.793Z,11.10
2023-01-22T02:21:42.708Z,11.70
2023-01-22T02:26:50.094Z,11.00
2023-01-22T02:31:59.777Z,11.50
2023-01-22T02:42:13.997Z,12.90
2023-01-22T02:47:22.289Z,14.70
2023-01-22T02:52:29.768Z,12.50
2023-01-22T02:57:37.589Z,12.80
2023-01-22T03:02:44.816Z,13.00
2023-01-22T03:07:53.333Z,13.30
2023-01-22T03:13:18.466Z,12.30
2023-01-22T03:18:43.500Z,11.50
2023-01-22T03:23:53.008Z,24.10
2023-01-22T03:29:00.531Z,14.10
2023-01-22T03:34:07.836Z,12.40
2023-01-22T03:39:16.029Z,12.10
2023-01-22T03:44:23.483Z,11.40
2023-01-22T03:49:31.016Z,11.10
2023-01-22T03:54:38.765Z,13.70
2023-01-22T03:59:47.657Z,12.10
2023-01-22T04:04:55.707Z,11.60
2023-01-22T04:10:03.275Z,10.70
2023-01-22T04:15:13.242Z,11.30
2023-01-22T04:20:21.139Z,11.60
2023-01-22T04:25:39.237Z,14.10
2023-01-22T04:30:51.825Z,11.70
2023-01-22T04:36:14.358Z,11.60
2023-01-22T04:41:22.518Z,10.90
2023-01-22T04:46:29.781Z,11.80
2023-01-22T04:51:37.750Z,11.80
2023-01-22T04:56:45.258Z,12.70
2023-01-22T05:01:53.602Z,13.20
2023-01-22T05:07:02.038Z,11.70
2023-01-22T05:12:09.923Z,11.10
2023-01-22T05:17:22.239Z,10.70
2023-01-22T05:22:30.210Z,11.30
2023-01-22T05:27:38.973Z,12.70
2023-01-22T05:32:58.354Z,13.90
2023-01-22T05:38:06.542Z,12.20
2023-01-22T05:43:13.979Z,12.00
2023-01-22T05:48:30.318Z,10.50
2023-01-22T05:53:50.519Z,10.30
2023-01-22T05:58:59.359Z,11.40
2023-01-22T06:04:10.920Z,13.40
2023-01-22T06:09:19.644Z,12.10
2023-01-22T06:14:40.913Z,11.40
2023-01-22T06:19:56.848Z,10.70
2023-01-22T06:25:04.231Z,12.90
2023-01-22T06:30:26.924Z,12.30
2023-01-22T06:35:34.865Z,11.50
2023-01-22T06:40:42.017Z,13.20
2023-01-22T06:45:49.394Z,12.40
2023-01-22T06:51:01.807Z,12.20
2023-01-22T06:56:10.647Z,13.20
2023-01-22T07:01:18.083Z,12.80
2023-01-22T07:06:25.414Z,13.10
2023-01-22T07:11:32.788Z,12.80
2023-01-22T07:16:40.142Z,13.10
2023-01-22T07:21:47.340Z,10.90
2023-01-22T07:34:26.591Z,13.50
2023-01-22T07:39:58.793Z,12.10
2023-01-22T07:51:35.090Z,12.10
2023-01-22T08:02:14.558Z,14.60
2023-01-22T08:07:25.804Z,13.40
2023-01-22T08:12:46.345Z,13.50
2023-01-22T08:17:54.635Z,13.90
2023-01-22T08:23:02.437Z,12.40
2023-01-22T08:28:10.230Z,14.80
2023-01-22T08:33:17.469Z,14.00
2023-01-22T08:38:24.787Z,13.70
2023-01-22T08:43:45.601Z,13.40
2023-01-22T08:48:53.359Z,13.90
2023-01-22T08:54:00.591Z,15.40
2023-01-22T08:59:07.880Z,15.80
2023-01-22T09:04:15.136Z,14.10
2023-01-22T09:09:22.562Z,14.70
2023-01-22T09:14:29.811Z,15.60
2023-01-22T09:19:37.142Z,16.00
2023-01-22T09:24:44.445Z,14.90
2023-01-22T09:29:51.754Z,14.40
2023-01-22T09:34:59.271Z,14.50
2023-01-22T09:40:07.973Z,15.90
2023-01-22T09:45:18.128Z,17.80
2023-01-22T09:50:29.027Z,16.10
2023-01-22T09:55:45.888Z,16.70
2023-01-22T10:00:55.780Z,16.10
2023-01-22T10:06:06.251Z,17.90
2023-01-22T10:11:13.832Z,18.60
2023-01-22T10:16:21.077Z,16.80
2023-01-22T10:21:30.907Z,16.00
2023-01-22T10:26:41.035Z,17.60
2023-01-22T10:31:53.403Z,16.40
2023-01-22T10:37:03.739Z,15.90
2023-01-22T10:42:19.683Z,15.80
2023-01-22T10:47:28.446Z,14.70
2023-01-22T10:52:43.089Z,15.50
2023-01-22T10:57:56.747Z,14.80
2023-01-22T11:03:14.633Z,16.70
2023-01-22T11:08:30.311Z,15.70
2023-01-22T11:13:47.780Z,15.70
2023-01-22T11:19:07.878Z,16.10
2023-01-22T11:24:19.999Z,14.70
2023-01-22T11:30:00.949Z,15.30
2023-01-22T11:35:19.376Z,15.10
2023-01-22T11:45:54.148Z,16.20
2023-01-22T11:51:14.012Z,16.00
2023-01-22T11:56:33.201Z,16.50
2023-01-22T12:01:54.835Z,15.80
2023-01-22T12:07:21.689Z,17.40
2023-01-22T12:12:43.655Z,17.70
2023-01-22T12:18:01.567Z,17.80
2023-01-22T12:23:12.777Z,18.40
2023-01-22T12:28:26.138Z,19.30
2023-01-22T12:33:39.424Z,18.40
2023-01-22T12:38:54.448Z,19.50
2023-01-22T12:44:09.762Z,19.40
2023-01-22T12:49:19.143Z,20.30
2023-01-22T12:54:32.643Z,19.20
2023-01-22T12:59:48.951Z,24.70
2023-01-22T13:04:57.900Z,22.30
2023-01-22T13:10:07.994Z,21.00
2023-01-22T13:15:21.086Z,21.40
2023-01-22T13:20:29.375Z,19.70
2023-01-22T13:25:38.787Z,22.30
2023-01-22T13:30:56.549Z,20.60
2023-01-22T13:36:14.674Z,22.50
2023-01-22T13:46:33.070Z,22.30
2023-01-22T13:56:46.498Z,23.40
2023-01-22T14:01:55.220Z,20.80
2023-01-22T14:07:05.960Z,22.50
2023-01-22T14:12:21.741Z,22.90
2023-01-22T14:17:31.534Z,25.50
2023-01-22T14:22:39.380Z,23.40
2023-01-22T14:27:49.662Z,21.90
2023-01-22T14:32:57.043Z,22.10
2023-01-22T14:38:04.217Z,25.70
2023-01-22T14:43:11.925Z,24.30
2023-01-22T14:48:21.613Z,24.00
2023-01-22T14:53:31.380Z,22.20
2023-01-22T14:58:38.694Z,22.50
2023-01-22T15:03:45.830Z,22.40
2023-01-22T15:08:53.381Z,22.60
2023-01-22T15:14:00.633Z,20.70
2023-01-22T15:19:08.032Z,21.00
2023-01-22T15:24:15.399Z,19.70
2023-01-22T15:29:22.808Z,25.00
2023-01-22T15:34:32.876Z,24.00
2023-01-22T15:39:40.158Z,25.30
2023-01-22T15:44:47.580Z,24.50
2023-01-22T15:49:55.013Z,20.30
2023-01-22T15:55:02.358Z,23.40
2023-01-22T16:00:12.601Z,21.90
2023-01-22T16:05:21.434Z,22.80
2023-01-22T16:10:28.873Z,23.70
2023-01-22T16:15:36.306Z,20.60
2023-01-22T16:20:43.818Z,23.00
2023-01-22T16:25:51.018Z,23.00
2023-01-22T16:31:03.258Z,21.20
2023-01-22T16:36:14.686Z,23.30
2023-01-22T16:41:28.087Z,22.40
2023-01-22T16:46:36.573Z,20.10
2023-01-22T16:51:45.653Z,19.80
2023-01-22T16:56:54.340Z,21.40
2023-01-22T17:02:03.320Z,21.80
2023-01-22T17:07:20.521Z,21.50
2023-01-22T17:12:36.721Z,22.00
2023-01-22T17:17:43.973Z,19.70
2023-01-22T17:22:51.133Z,20.90
2023-01-22T17:27:58.372Z,19.50
2023-01-22T17:33:05.611Z,20.40
2023-01-22T17:38:12.974Z,19.90
2023-01-22T17:43:20.250Z,21.50
2023-01-22T17:48:28.126Z,19.80
2023-01-22T17:58:50.243Z,18.30
2023-01-22T18:03:59.155Z,19.60
2023-01-22T18:09:07.419Z,23.00
2023-01-22T18:14:18.530Z,21.30
2023-01-22T18:19:26.033Z,18.50
2023-01-22T18:24:34.435Z,18.60
2023-01-22T18:29:42.040Z,18.90
2023-01-22T18:34:53.031Z,19.50
2023-01-22T18:40:01.925Z,20.50
2023-01-22T18:50:22.770Z,20.10
2023-01-22T18:55:31.062Z,19.10
2023-01-22T19:05:45.693Z,19.30
2023-01-22T19:10:52.945Z,19.10
2023-01-22T19:16:09.069Z,19.30
2023-01-22T19:21:19.433Z,19.70
2023-01-22T19:26:28.969Z,18.50
2023-01-22T19:31:38.111Z,18.80
2023-01-22T19:36:45.377Z,17.80
2023-01-22T19:41:52.591Z,18.90
2023-01-22T19:47:00.640Z,22.40
2023-01-22T19:52:09.072Z,25.30
2023-01-22T19:57:17.256Z,21.30
2023-01-22T20:02:39.632Z,16.10
2023-01-22T20:08:03.486Z,16.20
2023-01-22T20:13:25.991Z,19.10
2023-01-22T20:18:37.727Z,16.30
2023-01-22T20:23:47.249Z,15.60
2023-01-22T20:28:55.181Z,13.60
2023-01-22T20:34:04.890Z,14.90
2023-01-22T20:39:16.703Z,13.70
2023-01-22T20:44:24.617Z,15.00
2023-01-22T20:49:33.686Z,14.20
2023-01-22T20:54:54.827Z,16.90
2023-01-22T21:00:10.970Z,16.00
2023-01-22T21:05:19.085Z,14.00
2023-01-22T21:10:27.604Z,16.00
2023-01-22T21:15:37.230Z,15.30
2023-01-22T21:20:46.067Z,16.20
2023-01-22T21:25:54.194Z,18.50
2023-01-22T21:31:13.185Z,16.50
2023-01-22T21:36:25.284Z,16.40
2023-01-22T21:41:36.665Z,16.80
2023-01-22T21:46:45.880Z,15.50
2023-01-22T21:52:04.242Z,16.00
2023-01-22T21:57:19.815Z,15.10
2023-01-22T22:02:27.949Z,14.30
2023-01-22T22:12:43.017Z,13.80
2023-01-22T22:17:53.399Z,14.60
2023-01-22T22:23:01.245Z,13.90
2023-01-22T22:28:08.551Z,15.00
2023-01-22T22:33:15.810Z,14.90
2023-01-22T22:38:23.068Z,14.40
2023-01-22T22:43:32.225Z,17.00
2023-01-22T22:48:39.585Z,13.50
2023-01-22T22:53:46.989Z,14.60
2023-01-22T22:58:54.813Z,13.40
2023-01-22T23:09:08.122Z,17.00
2023-01-22T23:14:15.332Z,13.80
2023-01-22T23:19:25.692Z,15.20
2023-01-22T23:24:33.040Z,16.30
2023-01-22T23:29:41.347Z,15.10
2023-01-22T23:34:49.307Z,16.20
2023-01-22T23:39:56.592Z,14.10
2023-01-22T23:45:03.751Z,14.30
2023-01-22T23:50:12.308Z,14.10
2023-01-22T23:55:19.579Z,14.00
